createdAt,value
2018-09-18T00:01:32.753Z,6.97
2018-09-18T00:04:01.246Z,7.07
2018-09-18T00:06:29.821Z,7.33
2018-09-18T00:08:58.314Z,7.47
2018-09-18T00:11:26.768Z,6.67
2018-09-18T00:13:55.308Z,7.30
2018-09-18T00:16:23.781Z,7.17
2018-09-18T00:18:52.346Z,7.67
2018-09-18T00:21:20.808Z,7.13
2018-09-18T00:23:49.323Z,7.43
2018-09-18T00:26:17.810Z,8.10
2018-09-18T00:28:46.395Z,7.43
2018-09-18T00:31:14.877Z,6.97
2018-09-18T00:33:43.406Z,8.20
2018-09-18T00:36:11.896Z,7.60
2018-09-18T00:38:40.405Z,7.87
2018-09-18T00:41:08.912Z,7.70
2018-09-18T00:43:37.442Z,7.90
2018-09-18T00:46:05.957Z,7.60
2018-09-18T00:48:34.434Z,8.67
2018-09-18T00:51:02.873Z,7.93
2018-09-18T00:53:31.351Z,7.97
2018-09-18T00:55:59.807Z,8.10
2018-09-18T00:58:28.298Z,8.60
2018-09-18T01:00:56.777Z,8.37
2018-09-18T01:03:25.283Z,7.97
2018-09-18T01:05:53.725Z,8.80
2018-09-18T01:08:22.323Z,8.93
2018-09-18T01:10:50.838Z,8.97
2018-09-18T01:13:19.351Z,8.90
2018-09-18T01:15:47.826Z,8.57
2018-09-18T01:18:16.315Z,8.97
2018-09-18T01:20:44.821Z,8.70
2018-09-18T01:23:13.258Z,9.90
2018-09-18T01:25:41.731Z,9.60
2018-09-18T01:28:10.173Z,9.47
2018-09-18T01:30:38.665Z,9.70
2018-09-18T01:33:07.135Z,9.17
2018-09-18T01:35:35.633Z,8.63
2018-09-18T01:38:04.122Z,8.90
2018-09-18T01:40:32.625Z,9.00
2018-09-18T01:43:01.188Z,9.33
2018-09-18T01:45:29.688Z,9.37
2018-09-18T01:47:58.180Z,9.47
2018-09-18T01:50:26.796Z,9.03
2018-09-18T01:52:55.276Z,9.37
2018-09-18T01:55:23.841Z,9.00
2018-09-18T01:57:52.324Z,9.63
2018-09-18T02:00:20.871Z,9.50
2018-09-18T02:02:49.302Z,9.33
2018-09-18T02:05:17.986Z,9.47
2018-09-18T02:07:46.445Z,9.60
2018-09-18T02:10:14.929Z,10.30
2018-09-18T02:12:43.410Z,9.87
2018-09-18T02:15:11.870Z,9.37
2018-09-18T02:17:40.367Z,9.83
2018-09-18T02:20:08.818Z,9.43
2018-09-18T02:22:37.319Z,9.93
2018-09-18T02:25:05.820Z,10.53
2018-09-18T02:27:34.323Z,9.80
2018-09-18T02:30:02.810Z,9.80
2018-09-18T02:32:31.338Z,10.20
2018-09-18T02:34:59.794Z,10.27
2018-09-18T02:37:28.302Z,9.90
2018-09-18T02:39:56.776Z,11.07
2018-09-18T02:42:25.305Z,10.70
2018-09-18T02:44:53.790Z,10.70
2018-09-18T02:47:22.297Z,10.40
2018-09-18T02:49:50.740Z,10.50
2018-09-18T02:52:19.644Z,10.70
2018-09-18T02:54:48.277Z,10.63
2018-09-18T02:57:16.792Z,11.03
2018-09-18T02:59:45.265Z,11.60
2018-09-18T03:02:13.736Z,11.17
2018-09-18T03:04:42.236Z,11.37
2018-09-18T03:07:10.773Z,11.77
2018-09-18T03:09:39.262Z,11.83
2018-09-18T03:12:07.915Z,12.63
2018-09-18T03:14:36.463Z,12.57
2018-09-18T03:17:05.011Z,11.67
2018-09-18T03:19:33.523Z,12.10
2018-09-18T03:22:01.973Z,12.70
2018-09-18T03:24:30.451Z,11.57
2018-09-18T03:26:58.982Z,12.03
2018-09-18T03:29:27.470Z,12.43
2018-09-18T03:31:55.931Z,12.80
2018-09-18T03:34:24.394Z,12.60
2018-09-18T03:36:52.870Z,13.13
2018-09-18T03:39:21.315Z,12.40
2018-09-18T03:41:49.803Z,12.53
2018-09-18T03:44:18.257Z,11.97
2018-09-18T03:46:46.712Z,12.07
2018-09-18T03:49:15.243Z,12.63
2018-09-18T03:51:43.678Z,11.83
2018-09-18T03:54:12.216Z,13.40
2018-09-18T03:56:40.726Z,11.93
2018-09-18T03:59:09.210Z,12.20
2018-09-18T04:01:37.888Z,13.07
2018-09-18T04:04:06.433Z,13.00
2018-09-18T04:06:34.948Z,12.70
2018-09-18T04:09:04.647Z,13.23
2018-09-18T04:11:33.205Z,13.53
2018-09-18T04:14:01.643Z,14.27
2018-09-18T04:16:30.112Z,15.33
2018-09-18T04:18:58.550Z,13.57
2018-09-18T04:21:32.407Z,14.07
2018-09-18T04:24:00.843Z,14.23
2018-09-18T04:26:29.268Z,13.37
2018-09-18T04:28:57.930Z,13.83
2018-09-18T04:31:26.377Z,14.50
2018-09-18T04:33:54.904Z,14.87
2018-09-18T04:36:23.750Z,13.70
2018-09-18T04:38:52.235Z,13.73
2018-09-18T04:41:20.656Z,13.77
2018-09-18T04:43:49.277Z,13.73
2018-09-18T04:46:17.713Z,14.47
2018-09-18T04:48:46.211Z,14.57
2018-09-18T04:51:14.666Z,14.97
2018-09-18T04:53:43.687Z,14.90
2018-09-18T04:56:12.156Z,14.43
2018-09-18T04:58:40.642Z,14.57
2018-09-18T05:01:09.207Z,14.63
2018-09-18T05:03:37.670Z,15.47
2018-09-18T05:06:06.239Z,15.33
2018-09-18T05:08:34.766Z,15.07
2018-09-18T05:11:03.212Z,14.30
2018-09-18T05:13:31.650Z,15.37
2018-09-18T05:16:00.244Z,15.43
2018-09-18T05:18:28.677Z,15.10
2018-09-18T05:20:57.157Z,15.20
2018-09-18T05:23:25.601Z,15.10
2018-09-18T05:25:54.097Z,14.50
2018-09-18T05:28:22.522Z,14.00
2018-09-18T05:30:50.993Z,14.50
2018-09-18T05:33:19.444Z,14.70
2018-09-18T05:35:48.129Z,14.60
2018-09-18T05:38:16.576Z,15.70
2018-09-18T05:40:45.084Z,14.70
2018-09-18T05:43:13.509Z,14.73
2018-09-18T05:45:41.994Z,15.03
2018-09-18T05:48:12.529Z,14.47
2018-09-18T05:50:41.469Z,14.13
2018-09-18T05:53:10.426Z,14.03
2018-09-18T05:55:38.894Z,13.80
2018-09-18T05:58:07.337Z,14.67
2018-09-18T06:00:35.806Z,13.27
2018-09-18T06:03:04.445Z,14.83
2018-09-18T06:05:32.912Z,14.03
2018-09-18T06:08:01.411Z,13.90
2018-09-18T06:10:29.915Z,14.33
2018-09-18T06:12:58.356Z,13.77
2018-09-18T06:15:27.286Z,14.13
2018-09-18T06:17:55.730Z,13.93
2018-09-18T06:20:24.181Z,13.57
2018-09-18T06:22:52.656Z,12.97
2018-09-18T06:25:21.091Z,13.63
2018-09-18T06:27:49.571Z,14.13
2018-09-18T06:30:18.015Z,13.60
2018-09-18T06:32:46.485Z,13.20
2018-09-18T06:35:15.331Z,13.50
2018-09-18T06:37:43.805Z,12.93
2018-09-18T06:40:12.315Z,12.50
2018-09-18T06:42:40.803Z,12.83
2018-09-18T06:45:09.265Z,13.03
2018-09-18T06:47:37.744Z,12.40
2018-09-18T06:50:06.246Z,12.20
2018-09-18T06:52:34.725Z,11.43
2018-09-18T06:55:03.165Z,11.70
2018-09-18T06:57:31.626Z,12.37
2018-09-18T07:00:00.106Z,11.10
2018-09-18T07:02:28.585Z,11.90
2018-09-18T07:04:57.043Z,10.40
2018-09-18T07:07:25.557Z,11.20
2018-09-18T07:09:54.018Z,11.00
2018-09-18T07:12:22.517Z,10.87
2018-09-18T07:14:50.949Z,12.47
2018-09-18T07:17:19.495Z,11.47
2018-09-18T07:19:47.992Z,11.50
2018-09-18T07:22:16.560Z,10.90
2018-09-18T07:24:45.009Z,10.97
2018-09-18T07:27:13.430Z,11.90
2018-09-18T07:29:41.924Z,11.47
2018-09-18T07:32:10.356Z,12.13
2018-09-18T07:34:38.826Z,11.53
2018-09-18T07:37:07.269Z,11.37
2018-09-18T07:39:35.740Z,11.37
2018-09-18T07:42:04.182Z,11.77
2018-09-18T07:44:32.650Z,11.63
2018-09-18T07:47:01.081Z,11.70
2018-09-18T07:49:29.563Z,12.87
2018-09-18T07:51:58.222Z,11.47
2018-09-18T07:54:26.664Z,10.83
2018-09-18T07:56:55.105Z,10.80
2018-09-18T07:59:23.574Z,10.70
2018-09-18T08:01:52.085Z,10.10
2018-09-18T08:04:20.603Z,10.47
2018-09-18T08:06:49.130Z,9.77
2018-09-18T08:09:17.582Z,9.00
2018-09-18T08:11:46.011Z,9.47
2018-09-18T08:14:14.485Z,8.67
2018-09-18T08:16:42.938Z,9.50
2018-09-18T08:19:11.512Z,8.60
2018-09-18T08:21:39.910Z,8.97
2018-09-18T08:24:08.434Z,8.37
2018-09-18T08:26:36.923Z,7.07
2018-09-18T08:29:05.437Z,8.47
2018-09-18T08:31:33.868Z,8.43
2018-09-18T08:34:02.351Z,8.30
2018-09-18T08:36:31.142Z,8.70
2018-09-18T08:38:59.613Z,8.60
2018-09-18T08:41:29.107Z,9.50
2018-09-18T08:43:57.647Z,8.47
2018-09-18T08:46:26.107Z,8.70
2018-09-18T08:48:56.226Z,7.87
2018-09-18T08:51:24.824Z,8.63
2018-09-18T08:53:53.330Z,9.07
2018-09-18T08:56:21.778Z,9.03
2018-09-18T08:58:50.796Z,8.60
2018-09-18T09:01:19.297Z,8.87
2018-09-18T09:03:48.008Z,7.70
2018-09-18T09:06:16.525Z,7.87
2018-09-18T09:08:45.148Z,8.03
2018-09-18T09:11:13.546Z,8.00
2018-09-18T09:13:42.049Z,7.33
2018-09-18T09:16:10.496Z,8.13
2018-09-18T09:18:39.100Z,7.90
2018-09-18T09:21:07.523Z,7.17
2018-09-18T09:23:35.987Z,6.28
2018-09-18T09:26:04.422Z,6.08
2018-09-18T09:28:32.912Z,6.40
2018-09-18T09:31:01.335Z,6.25
2018-09-18T09:33:29.810Z,5.78
2018-09-18T09:35:58.249Z,5.65
2018-09-18T09:38:26.729Z,5.33
2018-09-18T09:40:55.165Z,5.75
2018-09-18T09:43:23.681Z,5.35
2018-09-18T09:45:52.119Z,5.70
2018-09-18T09:48:20.591Z,5.60
2018-09-18T09:50:49.049Z,5.28
2018-09-18T09:53:17.478Z,5.28
2018-09-18T09:55:45.941Z,5.33
2018-09-18T09:58:14.402Z,4.87
2018-09-18T10:00:48.403Z,4.72
2018-09-18T10:03:16.843Z,5.20
2018-09-18T10:05:45.302Z,5.58
2018-09-18T10:08:13.769Z,5.05
2018-09-18T10:10:42.266Z,5.08
2018-09-18T10:13:10.702Z,4.67
2018-09-18T10:15:39.222Z,5.08
2018-09-18T10:18:07.717Z,5.12
2018-09-18T10:20:36.197Z,4.30
2018-09-18T10:23:04.658Z,4.78
2018-09-18T10:25:33.122Z,4.62
2018-09-18T10:28:01.537Z,4.70
2018-09-18T10:30:30.019Z,4.90
2018-09-18T10:32:58.620Z,4.40
2018-09-18T10:35:27.085Z,4.53
2018-09-18T10:37:55.542Z,4.83
2018-09-18T10:40:24.025Z,4.00
2018-09-18T10:42:52.587Z,4.53
2018-09-18T10:45:21.076Z,4.55
2018-09-18T10:47:49.554Z,4.62
2018-09-18T10:50:18.020Z,4.92
2018-09-18T10:52:46.477Z,4.50
2018-09-18T10:55:15.083Z,4.28
2018-09-18T10:57:43.523Z,4.10
2018-09-18T11:00:12.009Z,3.98
2018-09-18T11:02:40.480Z,4.22
2018-09-18T11:05:09.009Z,4.35
2018-09-18T11:07:37.596Z,4.22
2018-09-18T11:10:06.293Z,4.75
2018-09-18T11:12:34.767Z,3.90
2018-09-18T11:15:03.356Z,3.83
2018-09-18T11:17:31.773Z,3.60
2018-09-18T11:20:00.299Z,4.00
2018-09-18T11:22:28.883Z,3.33
2018-09-18T11:24:57.293Z,3.65
2018-09-18T11:27:25.729Z,4.20
2018-09-18T11:29:54.211Z,4.83
2018-09-18T11:32:22.658Z,4.22
2018-09-18T11:34:51.142Z,4.55
2018-09-18T11:37:19.580Z,4.15
2018-09-18T11:39:48.038Z,4.80
2018-09-18T11:42:16.478Z,4.62
2018-09-18T11:44:44.946Z,4.53
2018-09-18T11:47:13.401Z,4.37
2018-09-18T11:49:41.932Z,5.00
2018-09-18T11:52:10.558Z,5.53
2018-09-18T11:54:39.050Z,5.00
2018-09-18T11:57:07.716Z,5.50
2018-09-18T11:59:36.272Z,5.58
2018-09-18T12:02:04.799Z,4.40
2018-09-18T12:04:33.262Z,5.28
2018-09-18T12:07:01.756Z,4.70
2018-09-18T12:09:30.225Z,5.60
2018-09-18T12:11:58.695Z,4.80
2018-09-18T12:14:27.162Z,5.10
2018-09-18T12:16:55.623Z,4.45
2018-09-18T12:19:24.113Z,4.55
2018-09-18T12:21:52.591Z,4.05
2018-09-18T12:24:21.074Z,3.62
2018-09-18T12:26:49.534Z,3.67
2018-09-18T12:29:18.439Z,3.70
2018-09-18T12:31:46.930Z,4.58
2018-09-18T12:34:15.372Z,3.90
2018-09-18T12:36:43.878Z,4.22
2018-09-18T12:39:12.311Z,4.35
2018-09-18T12:41:41.274Z,4.08
2018-09-18T12:44:09.770Z,4.75
2018-09-18T12:46:38.248Z,3.90
2018-09-18T12:49:06.768Z,3.50
2018-09-18T12:51:35.183Z,3.80
2018-09-18T12:54:03.649Z,4.12
2018-09-18T12:56:32.134Z,3.85
2018-09-18T12:59:00.624Z,3.45
2018-09-18T13:01:29.063Z,3.77
2018-09-18T13:03:58.361Z,3.72
2018-09-18T13:06:26.975Z,4.00
2018-09-18T13:08:55.745Z,3.20
2018-09-18T13:11:24.348Z,3.62
2018-09-18T13:13:52.813Z,3.95
2018-09-18T13:16:21.323Z,3.80
2018-09-18T13:18:49.740Z,3.80
2018-09-18T13:21:18.230Z,3.90
2018-09-18T13:23:46.673Z,3.42
2018-09-18T13:26:15.158Z,3.60
2018-09-18T13:28:43.612Z,3.77
2018-09-18T13:31:12.155Z,3.60
2018-09-18T13:33:40.574Z,3.75
2018-09-18T13:36:09.042Z,3.95
2018-09-18T13:38:37.488Z,3.52
2018-09-18T13:41:06.062Z,3.50
2018-09-18T13:43:34.411Z,3.70
2018-09-18T13:46:02.968Z,3.58
2018-09-18T13:48:31.427Z,3.62
2018-09-18T13:50:59.914Z,3.55
2018-09-18T13:53:28.353Z,3.85
2018-09-18T13:55:56.840Z,3.65
2018-09-18T13:58:25.318Z,3.58
2018-09-18T14:00:53.837Z,3.35
2018-09-18T14:03:22.266Z,3.33
2018-09-18T14:05:50.754Z,3.20
2018-09-18T14:08:19.328Z,3.12
2018-09-18T14:10:47.875Z,3.58
2018-09-18T14:13:16.451Z,3.75
2018-09-18T14:15:44.987Z,3.47
2018-09-18T14:18:14.276Z,3.10
2018-09-18T14:20:42.938Z,3.65
2018-09-18T14:23:11.521Z,3.42
2018-09-18T14:25:40.006Z,2.80
2018-09-18T14:28:08.566Z,3.17
2018-09-18T14:30:37.035Z,3.30
2018-09-18T14:33:05.488Z,3.67
2018-09-18T14:35:34.039Z,3.40
2018-09-18T14:38:02.517Z,3.10
2018-09-18T14:40:31.091Z,3.33
2018-09-18T14:42:59.467Z,3.47
2018-09-18T14:45:28.001Z,3.12
2018-09-18T14:47:56.395Z,3.47
2018-09-18T14:50:24.862Z,3.37
2018-09-18T14:52:53.314Z,3.50
2018-09-18T14:55:21.787Z,3.27
2018-09-18T14:57:50.225Z,3.50
2018-09-18T15:00:18.705Z,3.72
2018-09-18T15:02:47.123Z,3.60
2018-09-18T15:05:15.612Z,3.95
2018-09-18T15:07:44.150Z,3.52
2018-09-18T15:10:12.610Z,3.08
2018-09-18T15:12:41.155Z,3.30
2018-09-18T15:15:09.592Z,3.52
2018-09-18T15:17:38.065Z,3.42
2018-09-18T15:20:07.060Z,3.17
2018-09-18T15:22:35.518Z,3.30
2018-09-18T15:25:04.008Z,3.12
2018-09-18T15:27:32.574Z,3.42
2018-09-18T15:30:01.010Z,3.50
2018-09-18T15:32:29.554Z,3.10
2018-09-18T15:34:58.206Z,3.30
2018-09-18T15:37:26.802Z,3.27
2018-09-18T15:39:55.270Z,3.08
2018-09-18T15:42:23.714Z,3.02
2018-09-18T15:44:52.217Z,3.20
2018-09-18T15:47:20.680Z,3.55
2018-09-18T15:49:49.178Z,2.90
2018-09-18T15:52:17.627Z,3.33
2018-09-18T15:54:46.107Z,3.15
2018-09-18T15:57:14.723Z,2.70
2018-09-18T15:59:43.231Z,2.80
2018-09-18T16:02:11.690Z,3.08
2018-09-18T16:04:40.234Z,2.87
2018-09-18T16:07:08.696Z,2.52
2018-09-18T16:09:38.665Z,2.42
2018-09-18T16:12:07.119Z,2.52
2018-09-18T16:14:35.631Z,2.87
2018-09-18T16:17:04.148Z,2.50
2018-09-18T16:19:32.554Z,2.25
2018-09-18T16:22:01.008Z,2.35
2018-09-18T16:24:29.509Z,2.33
2018-09-18T16:26:57.961Z,2.20
2018-09-18T16:29:26.427Z,2.30
2018-09-18T16:31:54.879Z,2.52
2018-09-18T16:34:23.443Z,2.55
2018-09-18T16:36:51.929Z,2.33
2018-09-18T16:39:20.422Z,2.05
2018-09-18T16:41:48.867Z,2.33
2018-09-18T16:44:17.387Z,2.58
2018-09-18T16:46:45.857Z,2.70
2018-09-18T16:49:14.336Z,2.37
2018-09-18T16:51:42.876Z,2.47
2018-09-18T16:54:11.372Z,2.42
2018-09-18T16:56:39.840Z,2.35
2018-09-18T16:59:08.356Z,2.50
2018-09-18T17:01:36.835Z,2.83
2018-09-18T17:04:05.342Z,2.45
2018-09-18T17:06:34.030Z,2.12
2018-09-18T17:09:02.516Z,2.45
2018-09-18T17:11:30.977Z,2.80
2018-09-18T17:13:59.507Z,1.90
2018-09-18T17:16:27.942Z,2.40
2018-09-18T17:18:56.420Z,2.75
2018-09-18T17:21:24.887Z,2.70
2018-09-18T17:23:53.432Z,2.87
2018-09-18T17:26:22.008Z,2.75
2018-09-18T17:28:50.747Z,2.75
2018-09-18T17:31:19.028Z,2.70
2018-09-18T17:33:47.859Z,3.20
2018-09-18T17:36:16.294Z,3.62
2018-09-18T17:38:44.807Z,2.75
2018-09-18T17:41:13.511Z,3.33
2018-09-18T17:43:41.971Z,3.35
2018-09-18T17:46:10.456Z,4.35
2018-09-18T17:48:38.978Z,4.47
2018-09-18T17:51:07.500Z,4.17
2018-09-18T17:53:36.020Z,3.92
2018-09-18T17:56:04.631Z,3.65
2018-09-18T17:58:33.070Z,3.92
2018-09-18T18:01:01.588Z,3.62
2018-09-18T18:03:30.037Z,3.55
2018-09-18T18:05:58.631Z,3.05
2018-09-18T18:08:27.366Z,3.98
2018-09-18T18:10:55.927Z,3.17
2018-09-18T18:13:24.800Z,3.37
2018-09-18T18:15:53.268Z,3.90
2018-09-18T18:18:21.727Z,3.50
2018-09-18T18:20:50.338Z,4.27
2018-09-18T18:23:18.765Z,3.97
2018-09-18T18:25:47.224Z,3.93
2018-09-18T18:28:15.744Z,3.87
2018-09-18T18:30:44.233Z,3.40
2018-09-18T18:33:12.974Z,4.00
2018-09-18T18:35:41.514Z,4.07
2018-09-18T18:38:09.866Z,4.10
2018-09-18T18:40:38.454Z,4.10
2018-09-18T18:43:06.866Z,4.27
2018-09-18T18:45:35.350Z,4.10
2018-09-18T18:48:03.975Z,3.93
2018-09-18T18:50:32.449Z,3.90
2018-09-18T18:53:00.964Z,3.83
2018-09-18T18:55:29.490Z,3.90
2018-09-18T18:57:57.959Z,3.67
2018-09-18T19:00:26.573Z,3.60
2018-09-18T19:02:55.038Z,3.67
2018-09-18T19:05:23.468Z,3.50
2018-09-18T19:07:51.961Z,3.57
2018-09-18T19:10:20.458Z,3.47
2018-09-18T19:12:48.933Z,3.60
2018-09-18T19:15:17.428Z,4.03
2018-09-18T19:17:45.919Z,3.97
2018-09-18T19:20:14.395Z,3.93
2018-09-18T19:22:43.232Z,3.77
2018-09-18T19:25:11.785Z,4.50
2018-09-18T19:27:40.300Z,3.90
2018-09-18T19:30:09.367Z,3.43
2018-09-18T19:32:38.553Z,3.53
2018-09-18T19:35:08.224Z,3.80
2018-09-18T19:37:37.114Z,3.80
2018-09-18T19:40:05.960Z,3.70
2018-09-18T19:42:34.436Z,3.60
2018-09-18T19:45:02.983Z,3.97
2018-09-18T19:47:31.593Z,3.57
2018-09-18T19:50:00.529Z,4.10
2018-09-18T19:52:29.395Z,3.50
2018-09-18T19:54:58.666Z,3.80
2018-09-18T19:57:27.697Z,4.00
2018-09-18T19:59:56.182Z,4.07
2018-09-18T20:02:24.610Z,3.63
2018-09-18T20:04:53.168Z,3.97
2018-09-18T20:07:21.646Z,3.63
2018-09-18T20:09:50.169Z,3.67
2018-09-18T20:12:18.617Z,3.90
2018-09-18T20:14:47.158Z,4.03
2018-09-18T20:17:16.005Z,4.43
2018-09-18T20:19:44.497Z,4.20
2018-09-18T20:22:12.975Z,4.50
2018-09-18T20:24:41.475Z,4.90
2018-09-18T20:27:09.966Z,4.77
2018-09-18T20:29:38.643Z,4.77
2018-09-18T20:32:07.972Z,5.13
2018-09-18T20:34:36.509Z,5.10
2018-09-18T20:37:04.984Z,5.07
2018-09-18T20:39:33.505Z,5.50
2018-09-18T20:42:01.937Z,6.10
2018-09-18T20:44:30.397Z,6.57
2018-09-18T20:46:59.082Z,5.10
2018-09-18T20:49:27.626Z,4.07
2018-09-18T20:51:56.128Z,5.00
2018-09-18T20:54:24.610Z,5.83
2018-09-18T20:56:53.068Z,5.40
2018-09-18T20:59:21.658Z,4.90
2018-09-18T21:01:50.043Z,4.23
2018-09-18T21:04:18.613Z,4.77
2018-09-18T21:06:47.090Z,4.87
2018-09-18T21:09:15.805Z,4.53
2018-09-18T21:11:44.357Z,3.63
2018-09-18T21:14:12.862Z,4.67
2018-09-18T21:16:41.296Z,4.50
2018-09-18T21:19:09.827Z,4.27
2018-09-18T21:21:38.291Z,4.17
2018-09-18T21:24:06.790Z,4.30
2018-09-18T21:26:35.216Z,4.50
2018-09-18T21:29:03.690Z,5.03
2018-09-18T21:31:32.198Z,5.40
2018-09-18T21:34:00.681Z,4.93
2018-09-18T21:36:29.158Z,5.00
2018-09-18T21:38:57.687Z,4.80
2018-09-18T21:41:26.164Z,4.70
2018-09-18T21:43:54.828Z,4.70
2018-09-18T21:46:23.285Z,5.50
2018-09-18T21:48:51.786Z,6.37
2018-09-18T21:51:20.427Z,6.60
2018-09-18T21:53:48.935Z,6.40
2018-09-18T21:56:17.390Z,6.53
2018-09-18T21:58:45.848Z,6.60
2018-09-18T22:01:14.369Z,6.70
2018-09-18T22:03:42.844Z,5.60
2018-09-18T22:06:11.349Z,5.73
2018-09-18T22:08:39.814Z,4.53
2018-09-18T22:11:08.318Z,4.53
2018-09-18T22:13:36.764Z,5.83
2018-09-18T22:16:05.280Z,6.30
2018-09-18T22:18:33.962Z,5.10
2018-09-18T22:21:02.420Z,6.80
2018-09-18T22:23:30.863Z,7.03
2018-09-18T22:25:59.413Z,7.17
2018-09-18T22:28:27.882Z,6.93
2018-09-18T22:30:56.361Z,7.03
2018-09-18T22:33:24.840Z,7.20
2018-09-18T22:35:53.410Z,5.70
2018-09-18T22:38:21.851Z,6.77
2018-09-18T22:40:50.359Z,7.53
2018-09-18T22:43:18.827Z,7.10
2018-09-18T22:45:47.366Z,7.60
2018-09-18T22:48:15.858Z,7.40
2018-09-18T22:50:44.359Z,7.60
2018-09-18T22:53:12.830Z,7.23
2018-09-18T22:55:41.307Z,7.73
2018-09-18T22:58:09.798Z,7.57
2018-09-18T23:00:38.282Z,7.57
2018-09-18T23:03:06.729Z,6.90
2018-09-18T23:05:35.211Z,7.00
2018-09-18T23:08:03.691Z,6.80
2018-09-18T23:10:32.191Z,6.27
2018-09-18T23:13:00.703Z,6.07
2018-09-18T23:15:29.603Z,7.13
2018-09-18T23:17:58.055Z,9.00
2018-09-18T23:20:26.517Z,7.90
2018-09-18T23:22:55.012Z,8.40
2018-09-18T23:25:23.474Z,7.70
2018-09-18T23:27:52.017Z,7.03
2018-09-18T23:30:20.492Z,7.60
2018-09-18T23:32:48.989Z,7.33
2018-09-18T23:35:17.496Z,7.20
2018-09-18T23:37:45.946Z,7.50
2018-09-18T23:40:14.553Z,7.53
2018-09-18T23:42:43.068Z,8.17
2018-09-18T23:45:11.562Z,7.50
2018-09-18T23:47:40.087Z,7.50
2018-09-18T23:50:08.550Z,7.63
2018-09-18T23:52:37.041Z,7.43
2018-09-18T23:55:05.568Z,7.37
2018-09-18T23:57:34.076Z,7.97
